Panama City, FL (32411)

11:34 PM CST on December 24, 2014 (GMT -0600)
North Lagoon @ Oakbrook Ln | Change Station
CLOSE
Current Station
Personal Weather Station
Location: Panama City Beach, FL
Elevation: 9 ft
Nearby Weather Stations

Elev 9 ft 30.16 °N, 85.76 °W | Updated 6 seconds ago

Mostly Cloudy
Mostly Cloudy
54.2 °F
Feels Like 54.2 °F
N
2.9
Wind Variable Wind from NNE
Gusts 6.9 mph

Today
High -- | Low -- °F
--% Chance of Precip.
Yesterday
High -- | Low -- °F
Precip. -- in
6:36 AM 4:48 PM
Waxing Crescent, 13% visible
Pressure 30.04 in
Visibility 10.0 miles
Clouds Few 4300 ft
Scattered Clouds 5000 ft
Overcast 13000 ft
Dew Point 47 °F
Humidity 76%
Rainfall 0.87 in
Snow Depth Not available.
UV 0 out of 12
Pollen .50 out of 12
Air Quality Not available.
Flu Activity Not available.
METAR KPAM 250458Z AUTO 31006KT 10SM FEW043 SCT050 OVC130 13/13 A3003 RMK AO2 SLP172 T01310130 $

More Conditions Fewer Conditions

Pressure 30.04 in
Visibility 10.0 miles
Clouds Few 4300 ft
Scattered Clouds 5000 ft
Overcast 13000 ft
Dew Point 47 °F
Humidity 76%
Rainfall 0.87 in
Snow Depth Not available.
UV 0 out of 12
Pollen .50 out of 12
Air Quality Not available.
Flu Activity Not available.
METAR KPAM 250458Z AUTO 31006KT 10SM FEW043 SCT050 OVC130 13/13 A3003 RMK AO2 SLP172 T01310130 $

More Conditions Fewer Conditions

10-Day Weather Forecast

Almanac

Astronomy

Dec. 24, 2014 Rise Set
Actual Time
Civil Twilight
Nautical Twilight
Astronomical Twilight
Moon
Length of Visible Light
Length of Day
Tomorrow will be .
, % of the Moon is Illuminated

Today's Extremes

State Highs State Lows

Community

WunderPhotos

Upload Photos

1,780,244 photos uploaded!

WunderBlogs® & News

Nearby

Air Quality

  Air Quality AQ Index Pollutant
Not available.

Snow Depth

Station Depth Elevation

Earthquake Activity

City Distance Mag. Time & Date
Minimum magnitude displayed is 2.5.

Coastal Water Temperatures

Place Temperature

Nearby Weather Stations